createdAt,value
2022-10-01T00:00:29.043Z,0.50
2022-10-01T00:10:31.547Z,0.63
2022-10-01T00:20:33.316Z,0.43
2022-10-01T00:30:40.127Z,0.70
2022-10-01T00:40:42.254Z,0.73
2022-10-01T00:50:44.991Z,0.93
2022-10-01T01:00:47.505Z,0.50
2022-10-01T01:11:11.186Z,0.30
2022-10-01T01:21:28.388Z,0.68
2022-10-01T01:31:37.524Z,0.52
2022-10-01T01:41:49.921Z,0.65
2022-10-01T01:51:59.944Z,0.65
2022-10-01T02:02:02.280Z,0.40
2022-10-01T02:12:22.790Z,0.30
2022-10-01T02:22:43.842Z,0.45
2022-10-01T02:32:49.894Z,0.60
2022-10-01T02:42:55.147Z,0.65
2022-10-01T02:53:06.977Z,0.65
2022-10-01T03:03:08.792Z,0.55
2022-10-01T03:13:10.609Z,0.40
2022-10-01T03:23:12.356Z,0.73
2022-10-01T03:33:14.167Z,0.50
2022-10-01T03:43:15.918Z,0.30
2022-10-01T03:53:18.422Z,0.50
2022-10-01T04:03:20.210Z,0.40
2022-10-01T04:13:21.975Z,0.50
2022-10-01T04:23:24.563Z,0.85
2022-10-01T04:33:26.305Z,0.40
2022-10-01T04:43:28.068Z,0.40
2022-10-01T04:53:29.878Z,0.40
2022-10-01T05:03:31.670Z,0.50
2022-10-01T05:13:33.434Z,0.68
2022-10-01T05:23:35.255Z,0.52
2022-10-01T05:33:37.036Z,0.50
2022-10-01T05:43:38.836Z,0.30
2022-10-01T05:53:40.581Z,0.32
2022-10-01T06:03:42.905Z,0.40
2022-10-01T06:13:46.743Z,0.50
2022-10-01T06:23:50.355Z,0.43
2022-10-01T06:33:52.218Z,0.35
2022-10-01T06:43:53.970Z,0.43
2022-10-01T06:53:57.762Z,0.30
2022-10-01T07:03:59.604Z,0.57
2022-10-01T07:14:01.476Z,0.43
2022-10-01T07:24:03.416Z,0.30
2022-10-01T07:34:05.172Z,0.47
2022-10-01T07:44:07.107Z,0.43
2022-10-01T07:54:09.260Z,0.85
2022-10-01T08:04:30.985Z,0.40
2022-10-01T08:14:32.755Z,0.40
2022-10-01T08:24:37.447Z,2.65
2022-10-01T08:34:39.301Z,0.52
2022-10-01T08:44:45.381Z,0.80
2022-10-01T08:55:00.465Z,0.40
2022-10-01T09:05:05.598Z,0.43
2022-10-01T09:15:32.525Z,0.50
2022-10-01T09:25:37.348Z,1.08
2022-10-01T09:36:01.445Z,17.48
2022-10-01T09:46:06.924Z,23.13
2022-10-01T09:56:16.346Z,29.88
2022-10-01T10:06:23.949Z,34.10
2022-10-01T10:16:26.429Z,46.05
2022-10-01T10:26:28.643Z,48.95
2022-10-01T10:36:36.557Z,40.53
2022-10-01T10:46:44.047Z,35.95
2022-10-01T10:57:02.792Z,37.00
2022-10-01T11:07:05.663Z,24.05
2022-10-01T11:17:49.349Z,33.03
2022-10-01T11:28:26.146Z,23.83
2022-10-01T11:38:39.932Z,20.83
2022-10-01T11:48:51.089Z,27.33
2022-10-01T11:58:56.756Z,18.75
2022-10-01T12:09:07.634Z,17.80
2022-10-01T12:19:26.718Z,12.77
2022-10-01T12:29:45.141Z,13.18
2022-10-01T12:40:30.923Z,10.35
2022-10-01T12:50:52.200Z,7.00
2022-10-01T13:01:17.718Z,13.38
2022-10-01T13:11:25.444Z,5.93
2022-10-01T13:21:46.216Z,7.07
2022-10-01T13:31:58.701Z,3.28
2022-10-01T13:42:00.528Z,4.20
2022-10-01T13:52:03.051Z,4.32
2022-10-01T14:02:35.231Z,3.58
2022-10-01T14:13:00.083Z,2.20
2022-10-01T14:23:16.016Z,2.25
2022-10-01T14:33:42.071Z,1.95
2022-10-01T14:43:43.865Z,4.07
2022-10-01T14:53:45.707Z,1.70
2022-10-01T15:03:48.612Z,2.00
2022-10-01T15:13:52.818Z,2.78
2022-10-01T15:23:54.831Z,1.75
2022-10-01T15:33:56.928Z,2.10
2022-10-01T15:44:03.961Z,1.73
2022-10-01T15:54:08.974Z,0.57
2022-10-01T16:04:14.237Z,0.98
2022-10-01T16:14:27.952Z,0.90
2022-10-01T16:24:40.839Z,0.30
2022-10-01T16:34:42.704Z,0.77
2022-10-01T16:44:44.572Z,0.65
2022-10-01T16:54:47.363Z,1.38
2022-10-01T17:04:49.143Z,1.08
2022-10-01T17:14:51.165Z,0.38
2022-10-01T17:24:52.934Z,0.70
2022-10-01T17:34:54.766Z,0.40
2022-10-01T17:44:56.545Z,0.20
2022-10-01T17:54:58.649Z,0.40
2022-10-01T18:05:03.865Z,0.22
2022-10-01T18:15:06.221Z,0.50
2022-10-01T18:25:08.307Z,0.25
2022-10-01T18:35:32.328Z,0.20
2022-10-01T18:45:51.454Z,0.30
2022-10-01T18:55:59.466Z,0.20
2022-10-01T19:06:22.108Z,0.30
2022-10-01T19:17:04.470Z,0.45
2022-10-01T19:27:27.285Z,0.10
2022-10-01T19:37:36.773Z,0.20
2022-10-01T19:47:45.789Z,0.20
2022-10-01T19:57:48.383Z,0.20
2022-10-01T20:08:12.731Z,0.35
2022-10-01T20:18:28.321Z,0.20
2022-10-01T20:28:37.678Z,0.20
2022-10-01T20:38:57.453Z,0.20
2022-10-01T20:49:06.754Z,0.30
2022-10-01T20:59:13.652Z,0.30
2022-10-01T21:09:34.022Z,0.13
2022-10-01T21:20:07.523Z,0.22
2022-10-01T21:30:15.780Z,0.13
2022-10-01T21:40:35.630Z,0.17
2022-10-01T21:50:49.990Z,0.20
2022-10-01T22:01:13.161Z,0.20
2022-10-01T22:11:21.084Z,0.20
2022-10-01T22:21:35.329Z,0.50
2022-10-01T22:31:38.763Z,0.32
2022-10-01T22:41:51.882Z,0.30
2022-10-01T22:52:13.890Z,0.57
2022-10-01T23:02:28.811Z,0.25
2022-10-01T23:12:55.422Z,0.63
2022-10-01T23:23:31.461Z,0.20
2022-10-01T23:34:10.215Z,0.20
2022-10-01T23:44:28.394Z,0.40
2022-10-01T23:54:33.007Z,0.50
